Aviation Digital Data Service (ADDS)

Output produced by METARs form (0637 UTC 24 January 2019)
found at http://aviationweather.gov/metar/data/
 
KUTS 240553Z AUTO 00000KT 10SM CLR M01/M03 A3011 RMK AO2 SLP199 T10061033 10050 21011 400671011 58006
KUTS 240526Z 2406/2506 00000KT P6SM SKC 
     FM241500 17004KT P6SM SCT250